Time;durP1;ratioP1;P1;durP2;ratioP2;P2;SDS_P1;SDS_P2;PMS_P1;PMS_P2;Temp;Humidity;BMP_temperature;BMP_pressure;BME280_temperature;BME280_humidity;BME280_pressure;Samples;Min_cycle;Max_cycle;Signal;HPM_P1;HPM_P2
2022/09/04 00:01:28;;;;;;;13.57;9.67;;;;;;;14.84;55.28;101162.98;1823149;78;21161;-71
2022/09/04 00:04:40;;;;;;;15.27;10.10;;;;;;;14.80;55.14;101168.10;1807316;78;21099;-71
2022/09/04 00:07:29;;;;;;;15.67;9.40;;;;;;;14.79;55.11;101170.53;1799015;78;21510;-71
2022/09/04 00:10:22;;;;;;;18.20;9.80;;;;;;;14.72;55.23;101165.97;1804471;78;21137;-71
2022/09/04 00:12:55;;;;;;;14.50;9.63;;;;;;;14.69;55.33;101174.03;1801310;78;21581;-71
2022/09/04 00:15:26;;;;;;;13.37;8.93;;;;;;;14.73;55.22;101179.13;1810093;78;21294;-72
2022/09/04 00:17:59;;;;;;;13.98;9.85;;;;;;;14.74;55.11;101173.20;1769140;80;21260;-72
2022/09/04 00:20:47;;;;;;;;;;;;;;;14.72;54.92;101177.53;1811278;77;21179;-72
2022/09/04 00:23:25;;;;;;;14.33;8.78;;;;;;;14.68;54.69;101171.63;1806899;77;20495;-71
2022/09/04 00:26:06;;;;;;;13.35;9.60;;;;;;;14.58;54.85;101169.74;1804986;78;21019;-71
2022/09/04 00:28:43;;;;;;;15.38;8.98;;;;;;;14.53;55.12;101173.21;1805299;78;21014;-70
2022/09/04 00:31:28;;;;;;;13.27;8.93;;;;;;;14.51;55.33;101176.73;1819975;78;21159;-72
2022/09/04 00:34:06;;;;;;;16.57;8.87;;;;;;;14.46;55.53;101175.33;1816593;78;21666;-70
2022/09/04 00:36:32;;;;;;;14.03;8.93;;;;;;;14.41;55.86;101171.31;1771341;80;21625;-70
2022/09/04 00:39:25;;;;;;;14.05;8.73;;;;;;;14.40;56.06;101173.71;1780257;79;21073;-71
2022/09/04 00:42:03;;;;;;;12.87;8.50;;;;;;;14.40;56.10;101178.28;1777776;80;21106;-70
2022/09/04 00:44:42;;;;;;;11.73;8.70;;;;;;;14.36;56.25;101179.36;1774462;80;21617;-71
2022/09/04 00:47:36;;;;;;;14.20;8.63;;;;;;;14.39;56.23;101175.34;1788610;79;21213;-71
2022/09/04 00:50:11;;;;;;;12.80;8.53;;;;;;;14.37;56.14;101178.27;1796552;79;21331;-71
2022/09/04 00:53:13;;;;;;;12.13;8.60;;;;;;;14.34;56.13;101177.46;1768613;80;21181;-71
2022/09/04 00:56:14;;;;;;;13.43;9.00;;;;;;;14.24;56.10;101178.80;1823012;78;21210;-71
2022/09/04 00:59:01;;;;;;;12.68;8.53;;;;;;;14.19;56.11;101186.86;1785262;78;21453;-71
2022/09/04 01:01:28;;;;;;;14.67;8.13;;;;;;;14.14;56.23;101187.64;1766479;78;21803;-70
2022/09/04 01:04:18;;;;;;;13.30;8.48;;;;;;;14.14;56.35;101190.32;1791296;78;21293;-71
2022/09/04 01:07:09;;;;;;;12.43;8.03;;;;;;;14.14;56.42;101186.29;1779112;78;21125;-71
2022/09/04 01:10:00;;;;;;;13.88;8.65;;;;;;;14.14;56.44;101181.46;1818842;78;21467;-71
2022/09/04 01:12:44;;;;;;;12.87;7.87;;;;;;;14.13;56.49;101182.54;1788327;80;21039;-72
2022/09/04 01:15:20;;;;;;;11.18;7.50;;;;;;;14.12;56.44;101180.39;1772969;80;21605;-71
2022/09/04 01:18:04;;;;;;;11.65;8.05;;;;;;;14.11;56.15;101180.64;1807662;77;21058;-71
2022/09/04 01:21:06;;;;;;;14.10;7.50;;;;;;;14.07;55.96;101175.80;1810797;78;21046;-71
2022/09/04 01:23:54;;;;;;;13.65;7.65;;;;;;;14.04;55.80;101176.33;1764961;78;21281;-71
2022/09/04 01:26:37;;;;;;;13.60;7.05;;;;;;;14.01;55.71;101170.68;1784417;77;21015;-72
2022/09/04 01:29:18;;;;;;;13.08;7.40;;;;;;;13.97;55.53;101169.06;1788916;80;21140;-71
2022/09/04 01:32:30;;;;;;;12.40;7.08;;;;;;;13.95;55.38;101169.05;1812948;78;21031;-72
2022/09/04 01:35:35;;;;;;;11.65;7.85;;;;;;;13.91;55.30;101172.00;1795853;78;21050;-72
2022/09/04 01:38:34;;;;;;;13.90;8.63;;;;;;;13.87;55.53;101173.60;1782217;78;21026;-72
2022/09/04 01:41:12;;;;;;;12.43;8.10;;;;;;;13.84;55.95;101178.42;1812608;78;21066;-72
2022/09/04 01:43:39;;;;;;;14.38;8.08;;;;;;;13.79;56.22;101180.30;1806099;78;21106;-70
2022/09/04 01:46:23;;;;;;;13.53;8.18;;;;;;;13.77;56.31;101181.09;1785323;79;21079;-71
2022/09/04 01:49:15;;;;;;;16.70;8.75;;;;;;;13.74;56.36;101178.38;1800284;78;21042;-71
2022/09/04 01:52:05;;;;;;;13.80;8.65;;;;;;;13.71;56.58;101173.53;1791015;78;21092;-72
2022/09/04 01:54:52;;;;;;;13.93;8.65;;;;;;;13.69;56.74;101173.02;1807811;78;21116;-72
2022/09/04 01:58:01;;;;;;;12.58;8.45;;;;;;;13.67;56.73;101179.70;1776285;78;21105;-72
2022/09/04 02:00:34;;;;;;;12.43;8.30;;;;;;;13.66;56.66;101178.90;1782335;78;21022;-70
2022/09/04 02:03:21;;;;;;;16.12;8.68;;;;;;;13.65;56.61;101171.09;1809072;78;21463;-72
2022/09/04 02:06:17;;;;;;;15.13;8.40;;;;;;;13.63;56.57;101165.20;1783668;80;21557;-72
2022/09/04 02:09:28;;;;;;;10.48;7.97;;;;;;;13.60;56.70;101167.33;1805080;78;21090;-71
2022/09/04 02:12:07;;;;;;;14.63;9.03;;;;;;;13.59;56.90;101167.06;1817452;77;21207;-69
2022/09/04 02:14:43;;;;;;;15.35;8.80;;;;;;;13.57;57.17;101163.83;1817794;77;21023;-72
2022/09/04 02:17:36;;;;;;;16.07;8.40;;;;;;;13.57;57.33;101160.34;1809365;78;21460;-71
2022/09/04 02:20:17;;;;;;;14.40;8.15;;;;;;;13.56;57.43;101165.44;1783443;78;21124;-71
2022/09/04 02:23:13;;;;;;;16.02;7.92;;;;;;;13.53;57.40;101165.96;1781885;79;21022;-72
2022/09/04 02:25:54;;;;;;;12.73;7.85;;;;;;;13.52;57.15;101171.03;1813564;77;22412;-72
2022/09/04 02:28:57;;;;;;;13.32;7.40;;;;;;;13.49;56.83;101167.53;1800435;78;21022;-72
2022/09/04 02:31:40;;;;;;;14.58;7.65;;;;;;;13.47;56.58;101171.83;1775823;78;21071;-72
2022/09/04 02:34:21;;;;;;;14.00;7.72;;;;;;;13.43;56.44;101172.63;1795208;78;21109;-72
2022/09/04 02:37:16;;;;;;;13.85;8.03;;;;;;;13.42;56.38;101179.04;1803701;78;21132;-72
2022/09/04 02:40:29;;;;;;;13.05;7.97;;;;;;;13.39;56.39;101181.70;1820369;78;21096;-72
2022/09/04 02:43:35;;;;;;;13.88;7.33;;;;;;;13.36;56.46;101176.88;1782269;80;21005;-71
2022/09/04 02:46:35;;;;;;;15.35;8.23;;;;;;;13.32;56.59;101178.45;1761636;81;21444;-70
2022/09/04 02:49:32;;;;;;;16.87;7.75;;;;;;;13.29;56.83;101181.14;1818840;78;21061;-72
2022/09/04 02:52:27;;;;;;;16.15;7.83;;;;;;;13.29;56.91;101185.16;1815389;78;21053;-72
2022/09/04 02:55:27;;;;;;;10.45;7.33;;;;;;;13.28;56.98;101184.87;1806981;78;21701;-71
2022/09/04 02:58:10;;;;;;;13.62;8.80;;;;;;;13.25;57.24;101173.84;1800378;78;21101;-70
2022/09/04 03:01:05;;;;;;;12.58;8.05;;;;;;;13.24;57.45;101177.58;1800041;78;21031;-69
2022/09/04 03:03:50;;;;;;;13.65;7.87;;;;;;;13.23;57.59;101183.48;1822845;78;21022;-69
2022/09/04 03:06:22;;;;;;;13.25;7.55;;;;;;;13.24;57.68;101186.46;1825764;78;21582;-69
2022/09/04 03:08:59;;;;;;;13.38;7.83;;;;;;;13.23;57.73;101184.83;1786900;80;21061;-69
2022/09/04 03:11:37;;;;;;;15.45;7.90;;;;;;;13.23;57.76;101184.83;1825441;78;21062;-68
2022/09/04 03:14:36;;;;;;;11.40;7.83;;;;;;;13.25;57.83;101192.09;1761498;81;20971;-69
2022/09/04 03:17:29;;;;;;;12.50;8.00;;;;;;;13.24;57.86;101188.30;1799631;78;21038;-69
2022/09/04 03:20:06;;;;;;;12.90;7.95;;;;;;;13.23;57.81;101184.02;1763083;80;20960;-69
2022/09/04 03:22:47;;;;;;;11.78;8.05;;;;;;;13.20;57.74;101187.22;1824031;78;21506;-71
2022/09/04 03:25:40;;;;;;;15.13;8.50;;;;;;;13.17;57.68;101183.71;1813714;78;21118;-70
2022/09/04 03:28:10;;;;;;;12.28;7.35;;;;;;;13.14;57.72;101186.37;1793045;80;21059;-68
2022/09/04 03:30:37;;;;;;;14.13;7.80;;;;;;;13.10;57.81;101190.10;1792112;78;21012;-69
2022/09/04 03:33:23;;;;;;;11.10;7.37;;;;;;;13.10;57.89;101186.62;1769084;78;21046;-69
2022/09/04 03:36:01;;;;;;;13.08;7.85;;;;;;;13.11;57.89;101189.56;1794328;78;21126;-69
2022/09/04 03:38:56;;;;;;;12.30;7.85;;;;;;;13.11;57.90;101191.70;1799487;78;21009;-71
2022/09/04 03:41:37;;;;;;;12.55;8.18;;;;;;;13.11;57.84;101193.59;1804627;78;20980;-70
2022/09/04 03:44:14;;;;;;;11.73;7.78;;;;;;;13.09;57.86;101193.83;1804891;78;21019;-70
2022/09/04 03:46:49;;;;;;;12.50;7.58;;;;;;;13.11;57.89;101196.27;1818729;77;20998;-70
2022/09/04 03:49:33;;;;;;;13.20;7.67;;;;;;;13.13;57.88;101204.34;1804450;78;22100;-71
2022/09/04 03:52:14;;;;;;;11.50;7.20;;;;;;;13.15;57.92;101208.09;1816043;78;21059;-70
2022/09/04 03:55:07;;;;;;;14.58;7.83;;;;;;;13.18;57.96;101202.75;1820787;78;21141;-72
2022/09/04 03:58:01;;;;;;;11.20;7.50;;;;;;;13.20;57.97;101204.11;1825555;78;21562;-71
2022/09/04 04:00:50;;;;;;;11.05;7.35;;;;;;;13.23;58.05;101204.94;1813301;77;21018;-71
2022/09/04 04:03:30;;;;;;;11.85;7.67;;;;;;;13.26;57.95;101200.94;1807431;78;21929;-71
2022/09/04 04:06:16;;;;;;;14.38;7.75;;;;;;;13.30;57.82;101204.75;1776290;78;27306;-72
2022/09/04 04:09:00;;;;;;;12.58;7.65;;;;;;;13.36;57.68;101207.73;1781768;78;21097;-72
2022/09/04 04:12:11;;;;;;;11.25;7.67;;;;;;;13.43;57.43;101209.66;1779067;78;21129;-71
2022/09/04 04:15:16;;;;;;;11.15;6.58;;;;;;;13.46;57.17;101211.81;1770899;78;21159;-70
2022/09/04 04:18:22;;;;;;;12.20;7.20;;;;;;;13.51;56.92;101206.46;1777882;78;21507;-72
2022/09/04 04:21:11;;;;;;;12.07;7.37;;;;;;;13.56;56.83;101204.36;1806437;78;20987;-70
2022/09/04 04:24:13;;;;;;;11.20;7.20;;;;;;;13.64;56.74;101210.55;1805232;78;21505;-72
2022/09/04 04:26:47;;;;;;;12.33;6.90;;;;;;;13.72;56.64;101206.55;1819771;77;20983;-71
2022/09/04 04:29:53;;;;;;;11.00;7.08;;;;;;;13.79;56.38;101214.66;1808102;78;21545;-72
2022/09/04 04:32:40;;;;;;;10.93;6.42;;;;;;;13.88;56.15;101217.63;1791770;80;22279;-71
2022/09/04 04:35:59;;;;;;;10.40;6.35;;;;;;;13.96;55.88;101223.05;1761984;81;21060;-71
2022/09/04 04:38:58;;;;;;;10.38;6.40;;;;;;;14.06;55.62;101224.43;1777615;79;21047;-71
2022/09/04 04:42:04;;;;;;;11.78;6.62;;;;;;;14.15;55.28;101230.08;1811317;78;21387;-72
2022/09/04 04:47:54;;;;;;;9.20;5.92;;;;;;;14.31;54.52;101227.70;1721702;78;21209;-72
2022/09/04 04:50:41;;;;;;;12.45;6.50;;;;;;;14.38;54.44;101234.17;1784489;78;21719;-71
2022/09/04 04:53:40;;;;;;;9.10;6.50;;;;;;;14.49;54.32;101238.52;1798721;78;21541;-71
2022/09/04 04:56:44;;;;;;;11.23;6.20;;;;;;;14.58;54.23;101235.61;1796575;78;21006;-72
2022/09/04 04:59:38;;;;;;;10.98;7.15;;;;;;;14.70;54.00;101231.30;1759943;81;21309;-72
2022/09/04 05:02:31;;;;;;;9.37;6.57;;;;;;;14.79;53.92;101233.73;1759459;81;21776;-74
2022/09/04 05:05:22;;;;;;;10.87;6.10;;;;;;;14.88;53.81;101235.36;1797924;78;21768;-71
2022/09/04 05:08:19;;;;;;;9.05;6.10;;;;;;;14.95;53.21;101238.03;1756576;81;21626;-71
2022/09/04 05:11:31;;;;;;;11.50;6.60;;;;;;;15.05;53.06;101241.80;1771808;80;21046;-72
2022/09/04 05:14:16;;;;;;;9.67;5.93;;;;;;;15.12;53.04;101244.48;1796001;78;21278;-71
2022/09/04 05:17:33;;;;;;;11.07;6.07;;;;;;;15.19;52.44;101244.20;1763024;80;21271;-73
2022/09/04 05:20:28;;;;;;;10.05;6.30;;;;;;;15.26;52.56;101244.73;1761072;81;21252;-72
2022/09/04 05:23:26;;;;;;;8.70;5.73;;;;;;;15.38;52.33;101250.64;1789525;78;21510;-72
2022/09/04 05:26:10;;;;;;;9.23;5.90;;;;;;;15.48;52.25;101244.44;1792896;80;21253;-72
2022/09/04 05:29:25;;;;;;;10.03;5.87;;;;;;;15.59;52.40;101247.90;1735045;81;21321;-71
2022/09/04 05:32:31;;;;;;;8.37;5.00;;;;;;;15.69;52.33;101246.55;1760133;80;21931;-71
2022/09/04 05:35:36;;;;;;;7.13;4.40;;;;;;;15.76;50.98;101251.13;1791781;80;21256;-71
2022/09/04 05:38:38;;;;;;;8.00;5.13;;;;;;;15.87;50.96;101253.24;1793031;80;21291;-70
2022/09/04 05:41:46;;;;;;;6.73;5.03;;;;;;;16.02;50.37;101255.86;1825593;78;21714;-70
2022/09/04 05:44:52;;;;;;;7.20;5.10;;;;;;;16.14;50.34;101255.55;1792476;80;21484;-69
2022/09/04 05:47:49;;;;;;;9.43;5.10;;;;;;;16.25;49.99;101255.75;1793437;80;21788;-70
2022/09/04 05:50:33;;;;;;;10.03;5.37;;;;;;;16.35;50.30;101260.28;1825668;78;21095;-72
2022/09/04 05:53:40;;;;;;;5.87;4.00;;;;;;;16.41;50.47;101266.71;1788574;80;21007;-71
2022/09/04 05:56:54;;;;;;;8.53;4.40;;;;;;;16.49;50.20;101265.88;1825644;78;21271;-71
2022/09/04 05:59:39;;;;;;;7.20;4.33;;;;;;;16.63;49.03;101266.86;1825506;78;21739;-73
2022/09/04 06:02:29;;;;;;;6.93;3.90;;;;;;;16.78;47.99;101270.02;1767344;80;21285;-71
2022/09/04 06:05:39;;;;;;;7.03;4.20;;;;;;;16.90;47.25;101272.37;1760079;81;21250;-73
2022/09/04 06:08:36;;;;;;;6.10;3.70;;;;;;;17.01;46.61;101272.53;1793118;80;21755;-73
2022/09/04 06:11:35;;;;;;;7.47;3.30;;;;;;;17.15;46.48;101273.52;1790399;80;21204;-73
2022/09/04 06:14:43;;;;;;;;;;;;;;;17.29;45.17;101275.00;1795702;80;21703;-72
2022/09/04 06:17:50;;;;;;;5.83;2.97;;;;;;;17.42;44.69;101275.69;1811023;78;21514;-71
2022/09/04 06:20:37;;;;;;;7.50;3.03;;;;;;;17.54;44.29;101272.61;1794982;78;21259;-72
2022/09/04 06:23:12;;;;;;;4.77;2.67;;;;;;;17.70;44.17;101275.93;1793538;80;21874;-72
2022/09/04 06:25:48;;;;;;;4.00;2.43;;;;;;;17.82;42.08;101270.97;1801188;78;21453;-71
2022/09/04 06:28:32;;;;;;;6.30;2.80;;;;;;;17.88;40.79;101272.52;1803245;78;21759;-72
2022/09/04 06:31:22;;;;;;;5.40;2.33;;;;;;;18.02;40.72;101285.59;1769859;78;21499;-73
2022/09/04 06:34:30;;;;;;;6.27;2.50;;;;;;;18.02;40.72;101285.59;1792954;80;21567;-72
2022/09/04 06:37:11;;;;;;;4.23;2.10;;;;;;;18.16;40.55;101284.87;1788575;78;21662;-71
2022/09/04 06:39:56;;;;;;;5.80;2.50;;;;;;;18.31;40.00;101279.83;1772266;79;21625;-72
2022/09/04 06:43:20;;;;;;;4.67;2.30;;;;;;;18.56;39.82;101293.02;1781441;80;21765;-72
2022/09/04 06:46:05;;;;;;;7.13;2.27;;;;;;;18.56;39.82;101293.02;1809184;78;22224;-73
2022/09/04 06:48:49;;;;;;;4.37;2.50;;;;;;;18.70;38.45;101291.17;1810314;77;21746;-73
2022/09/04 06:51:49;;;;;;;5.07;2.20;;;;;;;18.79;38.35;101287.30;1816431;77;21662;-71
2022/09/04 06:54:41;;;;;;;8.33;2.80;;;;;;;18.89;37.96;101289.84;1826565;77;22146;-70
2022/09/04 06:57:42;;;;;;;4.63;2.10;;;;;;;19.01;37.35;101298.04;1804420;78;21721;-72
2022/09/04 07:00:14;;;;;;;4.50;1.90;;;;;;;19.09;37.38;101297.38;1761935;81;21763;-72
2022/09/04 07:03:18;;;;;;;5.80;1.83;;;;;;;19.19;36.96;101289.88;1796342;78;22173;-73
2022/09/04 07:06:11;;;;;;;4.13;1.80;;;;;;;19.31;36.56;101294.01;1775742;78;22170;-73
2022/09/04 07:09:03;;;;;;;4.47;1.90;;;;;;;19.40;36.05;101280.84;1768970;79;21047;-70
2022/09/04 07:11:47;;;;;;;5.70;2.00;;;;;;;19.49;35.72;101292.36;1782628;78;21051;-71
2022/09/04 07:14:41;;;;;;;4.43;1.80;;;;;;;19.55;35.85;101288.45;1804595;78;21098;-72
2022/09/04 07:17:29;;;;;;;4.93;2.30;;;;;;;19.67;36.04;101286.86;1780390;78;20939;-72
2022/09/04 07:20:25;;;;;;;4.07;1.93;;;;;;;19.83;35.13;101286.02;1803463;78;20990;-71
2022/09/04 07:23:17;;;;;;;4.27;2.00;;;;;;;19.88;34.25;101285.94;1812252;77;21022;-72
2022/09/04 07:26:30;;;;;;;4.83;1.92;;;;;;;19.97;34.16;101281.14;1808806;78;21078;-72
2022/09/04 07:29:31;;;;;;;5.37;2.00;;;;;;;20.04;34.39;101289.14;1806302;78;21199;-73
2022/09/04 07:32:21;;;;;;;4.43;1.70;;;;;;;20.10;33.66;101283.87;1812531;78;21055;-73
2022/09/04 07:35:01;;;;;;;2.58;1.35;;;;;;;20.13;33.68;101283.80;1817775;78;21082;-73
2022/09/04 07:37:57;;;;;;;4.00;1.50;;;;;;;20.11;32.57;101278.69;1780191;79;21043;-70
2022/09/04 07:40:44;;;;;;;4.57;1.67;;;;;;;20.06;32.41;101273.91;1777342;78;21023;-71
2022/09/04 07:43:25;;;;;;;3.83;1.60;;;;;;;20.06;32.95;101275.27;1801032;78;21113;-70
2022/09/04 07:46:04;;;;;;;2.35;1.42;;;;;;;20.17;33.51;101271.78;1788073;78;21038;-71
2022/09/04 07:48:39;;;;;;;2.40;1.30;;;;;;;20.28;32.42;101280.77;1810818;78;20989;-73
2022/09/04 07:51:12;;;;;;;2.43;1.30;;;;;;;20.32;32.68;101279.59;1804730;78;21631;-71
2022/09/04 07:54:04;;;;;;;3.30;1.30;;;;;;;20.43;32.22;101274.18;1810910;78;21553;-71
2022/09/04 07:56:55;;;;;;;;;;;;;;;20.47;32.37;101271.69;1820279;77;21196;-73
2022/09/04 07:59:56;;;;;;;2.13;1.10;;;;;;;20.43;31.95;101270.67;1807478;78;20191;-71
2022/09/04 08:02:57;;;;;;;4.70;1.33;;;;;;;20.51;32.13;101269.43;1811985;78;22402;-72
2022/09/04 08:05:31;;;;;;;1.50;0.90;;;;;;;20.74;31.95;101266.18;1807552;78;21046;-73
2022/09/04 08:08:45;;;;;;;2.43;1.20;;;;;;;20.89;30.29;101266.91;1796153;78;21051;-74
2022/09/04 08:11:37;;;;;;;3.70;1.30;;;;;;;20.90;30.38;101270.69;1810539;78;21003;-73
2022/09/04 08:14:26;;;;;;;2.10;1.23;;;;;;;20.94;30.03;101273.59;1822596;78;21046;-72
2022/09/04 08:17:01;;;;;;;2.60;1.20;;;;;;;21.00;30.04;101279.14;1788200;80;21158;-72
2022/09/04 08:19:51;;;;;;;3.07;1.20;;;;;;;21.06;29.93;101282.78;1789197;78;21082;-73
2022/09/04 08:22:33;;;;;;;3.93;1.40;;;;;;;21.07;29.43;101275.43;1818840;77;21559;-73
2022/09/04 08:25:15;;;;;;;3.17;1.17;;;;;;;20.95;29.21;101280.62;1810821;78;21246;-72
2022/09/04 08:28:00;;;;;;;3.90;1.17;;;;;;;20.89;30.02;101279.93;1799257;78;20964;-75
2022/09/04 08:30:33;;;;;;;3.13;1.30;;;;;;;21.02;30.00;101276.34;1764358;80;21129;-72
2022/09/04 08:33:29;;;;;;;2.77;1.17;;;;;;;21.21;30.13;101284.30;1810867;78;21057;-72
2022/09/04 08:36:00;;;;;;;2.23;1.10;;;;;;;21.40;29.40;101290.11;1778686;78;21101;-72
2022/09/04 08:38:47;;;;;;;;;;;;;;;21.64;29.19;101281.58;1806738;78;21100;-72
2022/09/04 08:41:58;;;;;;;3.77;1.10;;;;;;;21.81;28.62;101280.84;1816785;77;20161;-73
2022/09/04 08:45:21;;;;;;;2.17;1.00;;;;;;;21.93;28.35;101287.28;1805259;78;21144;-72
2022/09/04 08:47:59;;;;;;;2.63;1.33;;;;;;;21.95;28.76;101287.77;1772948;79;21016;-72
2022/09/04 08:50:34;;;;;;;2.50;1.20;;;;;;;21.97;28.77;101288.24;1784458;79;21082;-72
2022/09/04 08:53:33;;;;;;;1.50;1.07;;;;;;;22.00;29.10;101280.81;1810458;78;21321;-72
2022/09/04 08:56:36;;;;;;;3.37;1.40;;;;;;;22.03;28.56;101282.67;1787024;77;20893;-73
2022/09/04 08:59:35;;;;;;;2.33;1.20;;;;;;;22.15;28.37;101280.97;1809933;78;21030;-73
2022/09/04 09:02:54;;;;;;;2.80;1.10;;;;;;;22.37;28.89;101276.50;1757470;80;21044;-72
2022/09/04 09:06:09;;;;;;;1.40;0.90;;;;;;;22.58;27.83;101269.88;1701688;84;21176;-73
2022/09/04 09:09:24;;;;;;;2.60;1.20;;;;;;;22.46;26.92;101273.23;1793490;80;21237;-71
2022/09/04 09:12:18;;;;;;;2.90;1.07;;;;;;;22.12;26.72;101277.48;1792693;78;21050;-73
2022/09/04 09:15:19;;;;;;;1.77;1.00;;;;;;;21.95;27.39;101267.94;1822328;78;20984;-72
2022/09/04 09:18:20;;;;;;;3.05;1.17;;;;;;;21.99;27.20;101264.82;1792804;80;21573;-73
2022/09/04 09:21:02;;;;;;;2.63;1.10;;;;;;;21.94;27.07;101272.55;1793144;80;21046;-73
2022/09/04 09:23:34;;;;;;;2.67;0.90;;;;;;;21.84;27.27;101275.56;1811854;78;21651;-73
2022/09/04 09:26:29;;;;;;;2.37;0.93;;;;;;;21.66;26.83;101269.28;1823104;78;21459;-72
2022/09/04 09:29:23;;;;;;;2.50;1.00;;;;;;;21.56;27.44;101270.13;1768341;78;21050;-70
2022/09/04 09:32:19;;;;;;;3.27;1.00;;;;;;;21.44;27.21;101273.42;1798833;78;21101;-73
2022/09/04 09:35:28;;;;;;;5.83;1.37;;;;;;;21.28;27.24;101272.98;1793075;78;21172;-72
2022/09/04 09:38:13;;;;;;;2.30;1.00;;;;;;;21.11;27.86;101273.69;1805723;77;21108;-75
2022/09/04 09:41:11;;;;;;;2.10;1.00;;;;;;;21.12;28.33;101271.21;1803679;78;21022;-73
2022/09/04 09:44:02;;;;;;;1.90;1.10;;;;;;;21.31;27.76;101269.64;1800129;78;21116;-72
2022/09/04 09:46:52;;;;;;;2.13;1.13;;;;;;;21.64;27.48;101266.06;1769113;80;21046;-72
2022/09/04 09:50:19;;;;;;;2.10;1.10;;;;;;;21.96;27.36;101261.38;1788405;78;21058;-73
2022/09/04 09:53:20;;;;;;;3.07;1.10;;;;;;;22.31;27.43;101265.52;1665861;85;21663;-73
2022/09/04 09:56:41;;;;;;;2.62;1.10;;;;;;;22.56;27.12;101264.73;1672938;85;21069;-73
2022/09/04 09:59:48;;;;;;;3.67;1.30;;;;;;;22.49;27.46;101263.06;1799741;79;20989;-72
2022/09/04 10:02:32;;;;;;;3.23;1.10;;;;;;;22.32;27.56;101260.34;1807442;79;21035;-71
2022/09/04 10:05:30;;;;;;;2.53;1.20;;;;;;;22.08;28.05;101262.92;1791881;78;21090;-72
2022/09/04 10:08:41;;;;;;;3.17;1.00;;;;;;;21.87;27.91;101267.34;1807005;78;21540;-71
2022/09/04 10:11:48;;;;;;;2.27;0.90;;;;;;;21.65;27.69;101265.50;1823742;77;21038;-72
2022/09/04 10:14:42;;;;;;;4.87;1.30;;;;;;;21.51;28.30;101265.61;1813043;77;21220;-70
2022/09/04 10:17:21;;;;;;;1.73;1.17;;;;;;;21.47;27.78;101264.08;1757325;80;21028;-72
2022/09/04 10:20:19;;;;;;;1.87;1.10;;;;;;;21.49;27.42;101256.98;1807055;78;20959;-73
2022/09/04 10:23:06;;;;;;;3.77;1.07;;;;;;;21.62;26.50;101254.72;1761326;81;22291;-72
2022/09/04 10:26:18;;;;;;;2.77;1.10;;;;;;;21.86;25.33;101269.83;1782841;80;21047;-72
2022/09/04 10:29:22;;;;;;;3.53;1.30;;;;;;;22.04;26.12;101259.78;1810681;77;21014;-72
2022/09/04 10:32:17;;;;;;;3.53;1.40;;;;;;;22.19;26.21;101255.28;1805143;78;21109;-72
2022/09/04 10:35:02;;;;;;;3.40;1.10;;;;;;;22.41;25.77;101254.35;1780623;78;20951;-71
2022/09/04 10:38:14;;;;;;;2.87;1.30;;;;;;;22.69;25.46;101250.72;1799870;78;21537;-72
2022/09/04 10:41:16;;;;;;;2.77;1.30;;;;;;;22.89;26.16;101251.98;1768280;78;21040;-73
2022/09/04 10:44:14;;;;;;;3.52;1.30;;;;;;;23.02;25.51;101255.67;1799560;78;20991;-74
2022/09/04 10:47:06;;;;;;;2.73;1.50;;;;;;;23.01;25.53;101254.88;1772815;79;20993;-73
2022/09/04 10:49:39;;;;;;;4.10;1.53;;;;;;;22.84;25.76;101261.69;1777282;78;21960;-72
2022/09/04 10:52:11;;;;;;;3.80;1.53;;;;;;;22.54;26.51;101260.73;1800024;78;21967;-73
2022/09/04 10:55:27;;;;;;;3.47;1.47;;;;;;;22.39;26.36;101262.02;1807616;78;21003;-72
2022/09/04 10:58:24;;;;;;;2.17;1.30;;;;;;;22.26;26.11;101259.69;1825699;78;20994;-72
2022/09/04 11:01:21;;;;;;;2.70;1.07;;;;;;;22.27;27.08;101256.41;1683770;83;21636;-71
2022/09/04 11:04:16;;;;;;;2.90;1.10;;;;;;;22.40;26.17;101252.16;1662092;84;21031;-72
2022/09/04 11:07:24;;;;;;;2.17;1.20;;;;;;;22.54;25.41;101250.66;1772933;78;21031;-71
2022/09/04 11:10:23;;;;;;;1.77;1.10;;;;;;;22.73;25.70;101254.39;1806289;78;21023;-73
2022/09/04 11:13:09;;;;;;;2.17;1.10;;;;;;;23.07;24.82;101244.05;1775519;78;21043;-73
2022/09/04 11:16:01;;;;;;;2.10;1.20;;;;;;;23.38;25.32;101239.68;1800347;78;21503;-72
2022/09/04 11:19:03;;;;;;;3.43;1.73;;;;;;;23.60;24.36;101237.83;1782848;79;21030;-72
2022/09/04 11:21:53;;;;;;;2.50;1.40;;;;;;;23.72;23.55;101236.58;1773557;79;21051;-73
2022/09/04 11:24:44;;;;;;;1.85;1.10;;;;;;;23.50;23.81;101245.81;1757965;80;22075;-73
2022/09/04 11:27:38;;;;;;;2.97;1.17;;;;;;;23.27;23.53;101245.83;1773975;80;21094;-72
2022/09/04 11:30:18;;;;;;;3.30;1.10;;;;;;;23.06;23.95;101241.62;1728244;81;21001;-72
2022/09/04 11:33:11;;;;;;;2.50;1.00;;;;;;;22.89;24.85;101238.36;1747160;80;21078;-71
2022/09/04 11:36:04;;;;;;;2.57;1.40;;;;;;;22.83;24.67;101234.99;1771106;78;22315;-72
2022/09/04 11:38:57;;;;;;;3.90;1.03;;;;;;;22.89;24.81;101230.98;1650975;78;10000404;-72
2022/09/04 11:42:21;;;;;;;2.67;1.27;;;;;;;23.09;25.27;101230.08;1815005;78;21601;-71
2022/09/04 11:45:41;;;;;;;3.00;1.30;;;;;;;23.37;23.84;101226.39;1776018;80;21640;-73
2022/09/04 11:48:30;;;;;;;3.90;1.30;;;;;;;23.50;23.63;101219.12;1774522;80;21172;-71
2022/09/04 11:51:20;;;;;;;2.50;1.30;;;;;;;23.62;23.28;101218.62;1801598;78;21046;-73
2022/09/04 11:54:22;;;;;;;2.17;1.13;;;;;;;23.77;23.25;101217.30;1791428;80;21016;-73
2022/09/04 11:57:17;;;;;;;3.60;1.20;;;;;;;23.94;23.68;101223.22;1804014;78;21089;-71
2022/09/04 12:00:00;;;;;;;1.40;1.00;;;;;;;24.19;23.22;101217.92;1802494;79;21508;-71
2022/09/04 12:03:02;;;;;;;2.33;1.13;;;;;;;24.28;22.10;101219.98;1800147;78;21514;-73
2022/09/04 12:06:03;;;;;;;3.20;1.20;;;;;;;24.30;22.84;101216.37;1819970;78;21069;-74
2022/09/04 12:08:57;;;;;;;3.13;1.20;;;;;;;24.28;22.39;101221.36;1804115;78;21035;-74
2022/09/04 12:11:51;;;;;;;2.40;1.10;;;;;;;23.98;22.20;101226.08;1733923;80;21050;-72
2022/09/04 12:14:39;;;;;;;;;;;;;;;23.62;23.00;101220.56;1809548;78;21085;-73
2022/09/04 12:17:48;;;;;;;3.10;1.30;;;;;;;23.38;22.67;101226.62;1819368;78;21144;-72
2022/09/04 12:20:30;;;;;;;3.27;1.40;;;;;;;23.17;23.20;101221.09;1777110;79;21521;-73
2022/09/04 12:23:30;;;;;;;3.02;1.30;;;;;;;23.04;23.63;101217.45;1813510;78;24283;-72
2022/09/04 12:26:48;;;;;;;2.37;1.23;;;;;;;23.15;23.77;101217.31;1790710;80;21348;-72
2022/09/04 12:29:56;;;;;;;2.97;1.40;;;;;;;23.36;24.05;101209.23;1785211;78;21063;-73
2022/09/04 12:33:01;;;;;;;1.97;1.10;;;;;;;23.63;23.48;101208.55;1779731;79;21140;-72
2022/09/04 12:36:00;;;;;;;2.27;1.20;;;;;;;23.91;22.83;101203.41;1768765;79;21592;-73
2022/09/04 12:39:17;;;;;;;1.73;1.00;;;;;;;24.08;22.54;101207.95;1767657;80;21069;-71
2022/09/04 12:42:06;;;;;;;3.63;1.37;;;;;;;24.14;23.19;101209.92;1808560;77;21501;-73
2022/09/04 12:45:00;;;;;;;3.50;1.20;;;;;;;24.05;22.61;101204.52;1816412;78;21532;-72
2022/09/04 12:47:57;;;;;;;3.40;1.30;;;;;;;23.79;23.07;101212.33;1798985;78;21127;-72
2022/09/04 12:50:56;;;;;;;3.97;1.20;;;;;;;23.62;23.50;101209.66;1809220;78;21022;-73
2022/09/04 12:54:08;;;;;;;4.60;1.30;;;;;;;23.65;24.04;101204.34;1780508;78;24985;-73
2022/09/04 12:56:46;;;;;;;2.65;1.30;;;;;;;23.81;24.08;101200.50;1800671;78;21514;-72
2022/09/04 12:59:39;;;;;;;2.80;1.30;;;;;;;23.93;23.35;101192.19;1803418;78;21066;-72
2022/09/04 13:02:45;;;;;;;2.13;1.00;;;;;;;24.04;23.42;101190.08;1820658;78;39554;-72
2022/09/04 13:05:47;;;;;;;3.83;1.27;;;;;;;24.13;23.40;101193.31;1786744;78;21050;-72
2022/09/04 13:08:26;;;;;;;3.37;1.20;;;;;;;24.21;23.11;101185.61;1816188;78;21062;-73
2022/09/04 13:11:34;;;;;;;3.17;1.20;;;;;;;24.28;23.66;101189.96;1777048;80;21080;-72
2022/09/04 13:14:41;;;;;;;2.43;1.20;;;;;;;24.41;23.04;101195.73;1775475;80;21057;-71
2022/09/04 13:17:28;;;;;;;2.93;1.50;;;;;;;24.29;22.32;101187.48;1787630;80;21212;-73
2022/09/04 13:20:33;;;;;;;3.57;1.30;;;;;;;24.02;22.80;101193.72;1808190;78;21498;-72
2022/09/04 13:23:17;;;;;;;3.37;1.30;;;;;;;23.88;22.54;101187.70;1786445;80;21070;-73
2022/09/04 13:26:02;;;;;;;3.60;1.40;;;;;;;23.80;23.15;101189.94;1805973;78;21039;-72